ICE55AW EKVG-BIKF
Flight info
| Callsign | ICE55AW |
|---|---|
| Flight time | 1h 19m |
| Altitude | 38000 |
| Route | M079F380 MY2W MY DCT ING DCT NASBU NASBU4K |
| Aircraft | B38M/M-SDE1FGHILORVWXY/HB1 |
Departure
| Time | 2026-04-28 19:12 |
|---|---|
| Airport | Vágar Airport (EKVG) |
Arrival
| Time | 2026-04-28 20:31 |
|---|---|
| Airport | Keflavik International Airport (BIKF) |
| Time | Latitude | Longitude | Altitude | Speed | Heading |
|---|---|---|---|---|---|
| 2026-04-28 18:55 | 62.06730 | -7.28131 | 291 ft | 0 kts | 73° |
| 2026-04-28 19:07 | 62.06729 | -7.28120 | 295 ft | 2 kts | 112° |
| 2026-04-28 19:07 | 62.06686 | -7.28088 | 294 ft | 12 kts | 176° |
| 2026-04-28 19:07 | 62.06601 | -7.28094 | 291 ft | 9 kts | 185° |
| 2026-04-28 19:07 | 62.06581 | -7.28098 | 295 ft | 2 kts | 187° |
| 2026-04-28 19:08 | 62.06576 | -7.28100 | 295 ft | 1 kts | 188° |
| 2026-04-28 19:08 | 62.06570 | -7.28102 | 292 ft | 1 kts | 190° |
| 2026-04-28 19:08 | 62.06531 | -7.28123 | 290 ft | 14 kts | 198° |
| 2026-04-28 19:08 | 62.06443 | -7.28062 | 295 ft | 15 kts | 118° |
| 2026-04-28 19:09 | 62.06398 | -7.27882 | 299 ft | 11 kts | 117° |
| 2026-04-28 19:09 | 62.06363 | -7.27736 | 299 ft | 13 kts | 119° |
| 2026-04-28 19:09 | 62.06298 | -7.27480 | 294 ft | 26 kts | 119° |
| 2026-04-28 19:09 | 62.06198 | -7.27077 | 278 ft | 33 kts | 118° |
| 2026-04-28 19:10 | 62.06081 | -7.26642 | 269 ft | 34 kts | 119° |
| 2026-04-28 19:10 | 62.05985 | -7.26234 | 251 ft | 25 kts | 111° |
| 2026-04-28 19:10 | 62.05945 | -7.26014 | 248 ft | 4 kts | 148° |
| 2026-04-28 19:10 | 62.05937 | -7.26011 | 248 ft | 1 kts | 182° |
| 2026-04-28 19:11 | 62.05923 | -7.26042 | 248 ft | 0 kts | 252° |
| 2026-04-28 19:11 | 62.05944 | -7.26119 | 247 ft | 13 kts | 319° |
| 2026-04-28 19:11 | 62.06083 | -7.26624 | 268 ft | 77 kts | 298° |
| 2026-04-28 19:11 | 62.06457 | -7.28125 | 293 ft | 151 kts | 298° |
| 2026-04-28 19:12 | 62.07030 | -7.30488 | 479 ft | 203 kts | 292° |
| 2026-04-28 19:12 | 62.07529 | -7.33137 | 1924 ft | 179 kts | 281° |
| 2026-04-28 19:12 | 62.07930 | -7.35723 | 2879 ft | 193 kts | 281° |
| 2026-04-28 19:12 | 62.08374 | -7.38616 | 3496 ft | 218 kts | 282° |
| 2026-04-28 19:13 | 62.08861 | -7.41759 | 4447 ft | 221 kts | 282° |
| 2026-04-28 19:13 | 62.09327 | -7.44897 | 5556 ft | 223 kts | 278° |
| 2026-04-28 19:13 | 62.09665 | -7.48243 | 6291 ft | 239 kts | 276° |
| 2026-04-28 19:13 | 62.10012 | -7.51840 | 7019 ft | 253 kts | 276° |
| 2026-04-28 19:14 | 62.10371 | -7.55514 | 8059 ft | 254 kts | 276° |
| 2026-04-28 19:14 | 62.10624 | -7.57968 | 8625 ft | 259 kts | 280° |
| 2026-04-28 19:14 | 62.11626 | -7.62732 | 9890 ft | 265 kts | 289° |
| 2026-04-28 19:14 | 62.12166 | -7.65102 | 10451 ft | 270 kts | 289° |
| 2026-04-28 19:15 | 62.13012 | -7.68797 | 11042 ft | 286 kts | 289° |
| 2026-04-28 19:15 | 62.13918 | -7.72744 | 11509 ft | 304 kts | 290° |
| 2026-04-28 19:15 | 62.14873 | -7.76885 | 12114 ft | 315 kts | 290° |
| 2026-04-28 19:15 | 62.15514 | -7.79666 | 12728 ft | 315 kts | 290° |
| 2026-04-28 19:16 | 62.16822 | -7.85356 | 13810 ft | 322 kts | 290° |
| 2026-04-28 19:16 | 62.17814 | -7.89685 | 14570 ft | 325 kts | 290° |
| 2026-04-28 19:16 | 62.18812 | -7.94054 | 15274 ft | 329 kts | 290° |
| 2026-04-28 19:16 | 62.19822 | -7.98481 | 15981 ft | 332 kts | 290° |
| 2026-04-28 19:17 | 62.20842 | -8.02959 | 16684 ft | 336 kts | 290° |
| 2026-04-28 19:17 | 62.21869 | -8.07480 | 17371 ft | 339 kts | 290° |
| 2026-04-28 19:17 | 62.22904 | -8.12046 | 18045 ft | 343 kts | 290° |
| 2026-04-28 19:17 | 62.23950 | -8.16670 | 18684 ft | 346 kts | 290° |
| 2026-04-28 19:18 | 62.25004 | -8.21341 | 19240 ft | 350 kts | 290° |
| 2026-04-28 19:18 | 62.26066 | -8.26058 | 19798 ft | 353 kts | 290° |
| 2026-04-28 19:18 | 62.27136 | -8.30818 | 20345 ft | 356 kts | 290° |
| 2026-04-28 19:18 | 62.28215 | -8.35633 | 20899 ft | 359 kts | 290° |
| 2026-04-28 19:19 | 62.29300 | -8.40484 | 21475 ft | 362 kts | 290° |
| 2026-04-28 19:19 | 62.30393 | -8.45381 | 21973 ft | 365 kts | 290° |
| 2026-04-28 19:19 | 62.31496 | -8.50334 | 22501 ft | 369 kts | 290° |
| 2026-04-28 19:19 | 62.32607 | -8.55333 | 23019 ft | 372 kts | 291° |
| 2026-04-28 19:20 | 62.33725 | -8.60377 | 23521 ft | 375 kts | 291° |
| 2026-04-28 19:20 | 62.34851 | -8.65471 | 23993 ft | 379 kts | 291° |
| 2026-04-28 19:20 | 62.35986 | -8.70618 | 24409 ft | 382 kts | 291° |
| 2026-04-28 19:20 | 62.37126 | -8.75799 | 24832 ft | 384 kts | 291° |
| 2026-04-28 19:21 | 62.38272 | -8.81019 | 25259 ft | 386 kts | 290° |
| 2026-04-28 19:21 | 62.39422 | -8.86275 | 25659 ft | 389 kts | 290° |
| 2026-04-28 19:21 | 62.40579 | -8.91572 | 26070 ft | 392 kts | 290° |
| 2026-04-28 19:21 | 62.41741 | -8.96907 | 26478 ft | 394 kts | 290° |
| 2026-04-28 19:22 | 62.42907 | -9.02272 | 26875 ft | 396 kts | 290° |
| 2026-04-28 19:22 | 62.43682 | -9.05845 | 27136 ft | 397 kts | 290° |
| 2026-04-28 19:22 | 62.45252 | -9.13106 | 27654 ft | 401 kts | 290° |
| 2026-04-28 19:22 | 62.46433 | -9.18581 | 28035 ft | 403 kts | 290° |
| 2026-04-28 19:23 | 62.47599 | -9.24005 | 28402 ft | 405 kts | 290° |
| 2026-04-28 19:23 | 62.48787 | -9.29544 | 28768 ft | 407 kts | 290° |
| 2026-04-28 19:23 | 62.49979 | -9.35114 | 29128 ft | 409 kts | 290° |
| 2026-04-28 19:23 | 62.51175 | -9.40720 | 29507 ft | 411 kts | 290° |
| 2026-04-28 19:24 | 62.52375 | -9.46363 | 29854 ft | 413 kts | 290° |
| 2026-04-28 19:24 | 62.53578 | -9.52030 | 30196 ft | 415 kts | 290° |
| 2026-04-28 19:24 | 62.54787 | -9.57741 | 30508 ft | 418 kts | 290° |
| 2026-04-28 19:24 | 62.55996 | -9.63471 | 30825 ft | 419 kts | 289° |
| 2026-04-28 19:25 | 62.57207 | -9.69226 | 31142 ft | 420 kts | 289° |
| 2026-04-28 19:25 | 62.58419 | -9.74999 | 31451 ft | 421 kts | 289° |
| 2026-04-28 19:25 | 62.59633 | -9.80799 | 31734 ft | 423 kts | 289° |
| 2026-04-28 19:25 | 62.60848 | -9.86618 | 32021 ft | 424 kts | 289° |
| 2026-04-28 19:26 | 62.62065 | -9.92466 | 32314 ft | 425 kts | 289° |
| 2026-04-28 19:26 | 62.63279 | -9.98315 | 32696 ft | 424 kts | 289° |
| 2026-04-28 19:26 | 62.64485 | -10.04145 | 33106 ft | 422 kts | 289° |
| 2026-04-28 19:26 | 62.65685 | -10.09959 | 33495 ft | 421 kts | 289° |
| 2026-04-28 19:27 | 62.66878 | -10.15754 | 33901 ft | 419 kts | 289° |
| 2026-04-28 19:27 | 62.68063 | -10.21528 | 34295 ft | 417 kts | 289° |
| 2026-04-28 19:27 | 62.69241 | -10.27288 | 34607 ft | 416 kts | 289° |
| 2026-04-28 19:27 | 62.70417 | -10.33051 | 34882 ft | 416 kts | 289° |
| 2026-04-28 19:28 | 62.71589 | -10.38809 | 35153 ft | 416 kts | 289° |
| 2026-04-28 19:28 | 62.72757 | -10.44567 | 35444 ft | 416 kts | 288° |
| 2026-04-28 19:28 | 62.73924 | -10.50334 | 35709 ft | 416 kts | 287° |
| 2026-04-28 19:28 | 62.75087 | -10.56098 | 35981 ft | 415 kts | 287° |
| 2026-04-28 19:29 | 62.76247 | -10.61863 | 36244 ft | 414 kts | 287° |
| 2026-04-28 19:29 | 62.77013 | -10.65674 | 36394 ft | 414 kts | 287° |
| 2026-04-28 19:29 | 62.78556 | -10.73386 | 36705 ft | 414 kts | 287° |
| 2026-04-28 19:29 | 62.79706 | -10.79147 | 36923 ft | 414 kts | 287° |
| 2026-04-28 19:30 | 62.80854 | -10.84920 | 37125 ft | 414 kts | 287° |
| 2026-04-28 19:30 | 62.82000 | -10.90694 | 37340 ft | 414 kts | 287° |
| 2026-04-28 19:30 | 62.83142 | -10.96468 | 37532 ft | 414 kts | 287° |
| 2026-04-28 19:30 | 62.84282 | -11.02244 | 37735 ft | 413 kts | 286° |
| 2026-04-28 19:31 | 62.85418 | -11.08021 | 37914 ft | 413 kts | 286° |
| 2026-04-28 19:31 | 62.86538 | -11.13732 | 38079 ft | 413 kts | 286° |
| 2026-04-28 19:31 | 62.87686 | -11.19603 | 38207 ft | 414 kts | 286° |
| 2026-04-28 19:31 | 62.88803 | -11.25326 | 38202 ft | 414 kts | 286° |
| 2026-04-28 19:32 | 62.91051 | -11.36907 | 38204 ft | 412 kts | 285° |
| 2026-04-28 19:32 | 62.93291 | -11.48508 | 38182 ft | 413 kts | 285° |
| 2026-04-28 19:33 | 62.95520 | -11.60119 | 38182 ft | 413 kts | 285° |
| 2026-04-28 19:33 | 62.97737 | -11.71733 | 38181 ft | 411 kts | 284° |
| 2026-04-28 19:34 | 62.99936 | -11.83325 | 38179 ft | 411 kts | 284° |
| 2026-04-28 19:34 | 63.02128 | -11.94944 | 38164 ft | 411 kts | 284° |
| 2026-04-28 19:35 | 63.04310 | -12.06579 | 38165 ft | 411 kts | 284° |
| 2026-04-28 19:35 | 63.06479 | -12.18218 | 38172 ft | 411 kts | 283° |
| 2026-04-28 19:36 | 63.08637 | -12.29861 | 38152 ft | 410 kts | 283° |
| 2026-04-28 19:36 | 63.10772 | -12.41445 | 38152 ft | 410 kts | 283° |
| 2026-04-28 19:37 | 63.12564 | -12.51223 | 38148 ft | 410 kts | 283° |
| 2026-04-28 19:37 | 63.15037 | -12.64804 | 38148 ft | 410 kts | 283° |
| 2026-04-28 19:38 | 63.17155 | -12.76506 | 38181 ft | 410 kts | 283° |
| 2026-04-28 19:38 | 63.19260 | -12.88207 | 38128 ft | 408 kts | 283° |
| 2026-04-28 19:39 | 63.21354 | -12.99916 | 38180 ft | 409 kts | 282° |
| 2026-04-28 19:39 | 63.23435 | -13.11626 | 38125 ft | 408 kts | 282° |
| 2026-04-28 19:40 | 63.25506 | -13.23349 | 38117 ft | 408 kts | 282° |
| 2026-04-28 19:40 | 63.27567 | -13.35089 | 38116 ft | 408 kts | 282° |
| 2026-04-28 19:41 | 63.29618 | -13.46839 | 38119 ft | 408 kts | 282° |
| 2026-04-28 19:41 | 63.31659 | -13.58611 | 38110 ft | 408 kts | 281° |
| 2026-04-28 19:42 | 63.33690 | -13.70390 | 38100 ft | 407 kts | 281° |
| 2026-04-28 19:42 | 63.35368 | -13.80182 | 38100 ft | 407 kts | 281° |
| 2026-04-28 19:43 | 63.37718 | -13.93981 | 38143 ft | 407 kts | 281° |
| 2026-04-28 19:43 | 63.39716 | -14.05793 | 38095 ft | 407 kts | 280° |
| 2026-04-28 19:44 | 63.41709 | -14.17644 | 38086 ft | 408 kts | 280° |
| 2026-04-28 19:44 | 63.43688 | -14.29493 | 38081 ft | 407 kts | 280° |
| 2026-04-28 19:45 | 63.45659 | -14.41366 | 38083 ft | 407 kts | 280° |
| 2026-04-28 19:45 | 63.47617 | -14.53240 | 38084 ft | 407 kts | 280° |
| 2026-04-28 19:46 | 63.49567 | -14.65137 | 38066 ft | 407 kts | 280° |
| 2026-04-28 19:46 | 63.51505 | -14.77041 | 38102 ft | 407 kts | 279° |
| 2026-04-28 19:47 | 63.53423 | -14.88901 | 38067 ft | 407 kts | 279° |
| 2026-04-28 19:47 | 63.55344 | -15.00854 | 38069 ft | 407 kts | 279° |
| 2026-04-28 19:48 | 63.57255 | -15.12823 | 38100 ft | 408 kts | 279° |
| 2026-04-28 19:48 | 63.59167 | -15.24872 | 38059 ft | 410 kts | 279° |
| 2026-04-28 19:49 | 63.61072 | -15.36954 | 38055 ft | 410 kts | 279° |
| 2026-04-28 19:49 | 63.62965 | -15.49050 | 38057 ft | 410 kts | 279° |
| 2026-04-28 19:50 | 63.65784 | -15.67210 | 38089 ft | 410 kts | 278° |
| 2026-04-28 19:51 | 63.67655 | -15.79332 | 38044 ft | 409 kts | 278° |
| 2026-04-28 19:51 | 63.69516 | -15.91469 | 38047 ft | 410 kts | 279° |
| 2026-04-28 19:52 | 63.71369 | -16.03621 | 38047 ft | 410 kts | 278° |
| 2026-04-28 19:52 | 63.73210 | -16.15779 | 38043 ft | 409 kts | 278° |
| 2026-04-28 19:53 | 63.75041 | -16.27954 | 38039 ft | 409 kts | 278° |
| 2026-04-28 19:53 | 63.76862 | -16.40136 | 38042 ft | 409 kts | 278° |
| 2026-04-28 19:54 | 63.78672 | -16.52330 | 38044 ft | 409 kts | 278° |
| 2026-04-28 19:54 | 63.80359 | -16.64554 | 38026 ft | 398 kts | 269° |
| 2026-04-28 19:55 | 63.80964 | -16.76861 | 38002 ft | 395 kts | 268° |
| 2026-04-28 19:55 | 63.81596 | -16.89198 | 38050 ft | 395 kts | 267° |
| 2026-04-28 19:56 | 63.82205 | -17.01471 | 38045 ft | 394 kts | 267° |
| 2026-04-28 19:56 | 63.82805 | -17.13817 | 38044 ft | 394 kts | 267° |
| 2026-04-28 19:57 | 63.83396 | -17.26169 | 38044 ft | 394 kts | 267° |
| 2026-04-28 19:57 | 63.83975 | -17.38515 | 38065 ft | 394 kts | 267° |
| 2026-04-28 19:58 | 63.84546 | -17.50918 | 38032 ft | 396 kts | 267° |
| 2026-04-28 19:58 | 63.84828 | -17.57126 | 37707 ft | 395 kts | 266° |
| 2026-04-28 19:58 | 63.85104 | -17.63304 | 37085 ft | 392 kts | 266° |
| 2026-04-28 19:58 | 63.85377 | -17.69387 | 36828 ft | 382 kts | 266° |
| 2026-04-28 19:59 | 63.85638 | -17.75281 | 36636 ft | 370 kts | 265° |
| 2026-04-28 19:59 | 63.85888 | -17.80998 | 36418 ft | 360 kts | 265° |
| 2026-04-28 19:59 | 63.86129 | -17.86593 | 36045 ft | 354 kts | 264° |
| 2026-04-28 19:59 | 63.86366 | -17.92132 | 35587 ft | 352 kts | 264° |
| 2026-04-28 20:00 | 63.86599 | -17.97638 | 35154 ft | 351 kts | 264° |
| 2026-04-28 20:00 | 63.86830 | -18.03129 | 34665 ft | 349 kts | 263° |
| 2026-04-28 20:00 | 63.87058 | -18.08587 | 34190 ft | 346 kts | 263° |
| 2026-04-28 20:00 | 63.87282 | -18.14003 | 33713 ft | 343 kts | 262° |
| 2026-04-28 20:01 | 63.87503 | -18.19373 | 33214 ft | 340 kts | 262° |
| 2026-04-28 20:01 | 63.87719 | -18.24680 | 32809 ft | 335 kts | 262° |
| 2026-04-28 20:01 | 63.87930 | -18.29905 | 32379 ft | 330 kts | 262° |
| 2026-04-28 20:01 | 63.88135 | -18.35047 | 31990 ft | 324 kts | 262° |
| 2026-04-28 20:02 | 63.88267 | -18.38396 | 31751 ft | 320 kts | 262° |
| 2026-04-28 20:02 | 63.88463 | -18.43397 | 31386 ft | 315 kts | 261° |
| 2026-04-28 20:02 | 63.88654 | -18.48323 | 31000 ft | 311 kts | 261° |
| 2026-04-28 20:02 | 63.88842 | -18.53187 | 30648 ft | 308 kts | 261° |
| 2026-04-28 20:03 | 63.89025 | -18.58000 | 30288 ft | 304 kts | 261° |
| 2026-04-28 20:03 | 63.89206 | -18.62751 | 29924 ft | 300 kts | 261° |
| 2026-04-28 20:03 | 63.89382 | -18.67430 | 29543 ft | 295 kts | 261° |
| 2026-04-28 20:03 | 63.89553 | -18.72031 | 29209 ft | 293 kts | 261° |
| 2026-04-28 20:04 | 63.89724 | -18.76712 | 28867 ft | 300 kts | 261° |
| 2026-04-28 20:04 | 63.89899 | -18.81475 | 28509 ft | 305 kts | 261° |
| 2026-04-28 20:04 | 63.90074 | -18.86287 | 28194 ft | 306 kts | 261° |
| 2026-04-28 20:04 | 63.90247 | -18.91101 | 27850 ft | 306 kts | 261° |
| 2026-04-28 20:05 | 63.90418 | -18.95907 | 27527 ft | 305 kts | 261° |
| 2026-04-28 20:05 | 63.90597 | -19.00707 | 27162 ft | 304 kts | 261° |
| 2026-04-28 20:05 | 63.90759 | -19.05488 | 26867 ft | 304 kts | 261° |
| 2026-04-28 20:05 | 63.90921 | -19.10269 | 26564 ft | 303 kts | 260° |
| 2026-04-28 20:06 | 63.91082 | -19.15028 | 26238 ft | 302 kts | 260° |
| 2026-04-28 20:06 | 63.91244 | -19.19793 | 25905 ft | 302 kts | 260° |
| 2026-04-28 20:06 | 63.91404 | -19.24558 | 25571 ft | 302 kts | 260° |
| 2026-04-28 20:06 | 63.91563 | -19.29318 | 25255 ft | 302 kts | 260° |
| 2026-04-28 20:07 | 63.91719 | -19.34064 | 24888 ft | 301 kts | 260° |
| 2026-04-28 20:07 | 63.91822 | -19.37205 | 24729 ft | 301 kts | 259° |
| 2026-04-28 20:07 | 63.92027 | -19.43564 | 24326 ft | 302 kts | 260° |
| 2026-04-28 20:07 | 63.92179 | -19.48311 | 24011 ft | 301 kts | 260° |
| 2026-04-28 20:08 | 63.92329 | -19.53063 | 23697 ft | 301 kts | 259° |
| 2026-04-28 20:08 | 63.92478 | -19.57815 | 23359 ft | 301 kts | 260° |
| 2026-04-28 20:08 | 63.92627 | -19.62554 | 23016 ft | 300 kts | 259° |
| 2026-04-28 20:08 | 63.92770 | -19.67275 | 22688 ft | 298 kts | 260° |
| 2026-04-28 20:09 | 63.92912 | -19.71963 | 22377 ft | 297 kts | 260° |
| 2026-04-28 20:09 | 63.93051 | -19.76637 | 22077 ft | 295 kts | 260° |
| 2026-04-28 20:09 | 63.93189 | -19.81282 | 21778 ft | 294 kts | 260° |
| 2026-04-28 20:09 | 63.93325 | -19.85904 | 21480 ft | 292 kts | 260° |
| 2026-04-28 20:10 | 63.93458 | -19.90495 | 21238 ft | 290 kts | 260° |
| 2026-04-28 20:10 | 63.93589 | -19.95061 | 20978 ft | 288 kts | 259° |
| 2026-04-28 20:10 | 63.93718 | -19.99582 | 20629 ft | 285 kts | 259° |
| 2026-04-28 20:10 | 63.93844 | -20.04049 | 20326 ft | 281 kts | 259° |
| 2026-04-28 20:11 | 63.93968 | -20.08454 | 20034 ft | 277 kts | 259° |
| 2026-04-28 20:11 | 63.94088 | -20.12793 | 19753 ft | 273 kts | 260° |
| 2026-04-28 20:11 | 63.94206 | -20.17061 | 19478 ft | 268 kts | 259° |
| 2026-04-28 20:11 | 63.94319 | -20.21197 | 19212 ft | 264 kts | 260° |
| 2026-04-28 20:12 | 63.94432 | -20.25391 | 18946 ft | 260 kts | 260° |
| 2026-04-28 20:12 | 63.94542 | -20.29514 | 18665 ft | 264 kts | 260° |
| 2026-04-28 20:12 | 63.94652 | -20.33718 | 18395 ft | 269 kts | 261° |
| 2026-04-28 20:12 | 63.94763 | -20.37972 | 18045 ft | 269 kts | 261° |
| 2026-04-28 20:13 | 63.94874 | -20.42192 | 17745 ft | 265 kts | 261° |
| 2026-04-28 20:13 | 63.94984 | -20.46332 | 17464 ft | 260 kts | 261° |
| 2026-04-28 20:13 | 63.95092 | -20.50390 | 17221 ft | 254 kts | 261° |
| 2026-04-28 20:13 | 63.95195 | -20.54339 | 16962 ft | 254 kts | 261° |
| 2026-04-28 20:14 | 63.95300 | -20.58400 | 16704 ft | 260 kts | 261° |
| 2026-04-28 20:14 | 63.95407 | -20.62544 | 16450 ft | 264 kts | 261° |
| 2026-04-28 20:14 | 63.95513 | -20.66716 | 16192 ft | 264 kts | 261° |
| 2026-04-28 20:14 | 63.95618 | -20.70879 | 15925 ft | 263 kts | 261° |
| 2026-04-28 20:15 | 63.95721 | -20.75035 | 15661 ft | 263 kts | 261° |
| 2026-04-28 20:15 | 63.95822 | -20.79183 | 15416 ft | 263 kts | 261° |
| 2026-04-28 20:15 | 63.95924 | -20.83345 | 15136 ft | 263 kts | 261° |
| 2026-04-28 20:15 | 63.96024 | -20.87503 | 14858 ft | 263 kts | 261° |
| 2026-04-28 20:16 | 63.96122 | -20.91648 | 14587 ft | 262 kts | 261° |
| 2026-04-28 20:16 | 63.96219 | -20.95785 | 14313 ft | 261 kts | 261° |
| 2026-04-28 20:16 | 63.96315 | -20.99911 | 14048 ft | 261 kts | 261° |
| 2026-04-28 20:16 | 63.96409 | -21.04023 | 13815 ft | 261 kts | 261° |
| 2026-04-28 20:17 | 63.96502 | -21.08170 | 13489 ft | 263 kts | 261° |
| 2026-04-28 20:17 | 63.96596 | -21.12327 | 13132 ft | 262 kts | 262° |
| 2026-04-28 20:17 | 63.96686 | -21.16440 | 12836 ft | 258 kts | 262° |
| 2026-04-28 20:17 | 63.96774 | -21.20487 | 12585 ft | 253 kts | 262° |
| 2026-04-28 20:18 | 63.96859 | -21.24458 | 12330 ft | 249 kts | 262° |
| 2026-04-28 20:18 | 63.96915 | -21.27049 | 12176 ft | 246 kts | 262° |
| 2026-04-28 20:18 | 63.97022 | -21.32207 | 11844 ft | 243 kts | 262° |
| 2026-04-28 20:18 | 63.97102 | -21.36104 | 11593 ft | 249 kts | 262° |
| 2026-04-28 20:19 | 63.97183 | -21.40088 | 11333 ft | 254 kts | 263° |
| 2026-04-28 20:19 | 63.97264 | -21.44101 | 11077 ft | 254 kts | 263° |
| 2026-04-28 20:19 | 63.97571 | -21.48128 | 10794 ft | 269 kts | 281° |
| 2026-04-28 20:19 | 63.98342 | -21.52068 | 10475 ft | 273 kts | 283° |
| 2026-04-28 20:20 | 63.99122 | -21.55999 | 10187 ft | 272 kts | 284° |
| 2026-04-28 20:20 | 63.99903 | -21.59898 | 9866 ft | 269 kts | 284° |
| 2026-04-28 20:20 | 64.00678 | -21.63763 | 9601 ft | 267 kts | 284° |
| 2026-04-28 20:20 | 64.01449 | -21.67595 | 9304 ft | 265 kts | 284° |
| 2026-04-28 20:21 | 64.02212 | -21.71392 | 8978 ft | 263 kts | 284° |
| 2026-04-28 20:21 | 64.02970 | -21.75163 | 8676 ft | 260 kts | 284° |
| 2026-04-28 20:21 | 64.03718 | -21.78897 | 8392 ft | 257 kts | 284° |
| 2026-04-28 20:21 | 64.04457 | -21.82584 | 8117 ft | 254 kts | 284° |
| 2026-04-28 20:22 | 64.05187 | -21.86238 | 7849 ft | 251 kts | 284° |
| 2026-04-28 20:22 | 64.05913 | -21.89880 | 7580 ft | 253 kts | 284° |
| 2026-04-28 20:22 | 64.06633 | -21.93494 | 7315 ft | 254 kts | 284° |
| 2026-04-28 20:22 | 64.07365 | -21.97169 | 7046 ft | 254 kts | 285° |
| 2026-04-28 20:23 | 64.08095 | -22.00852 | 6725 ft | 255 kts | 285° |
| 2026-04-28 20:23 | 64.08826 | -22.04544 | 6379 ft | 255 kts | 285° |
| 2026-04-28 20:23 | 64.09555 | -22.08228 | 6035 ft | 254 kts | 285° |
| 2026-04-28 20:23 | 64.10278 | -22.11894 | 5723 ft | 252 kts | 285° |
| 2026-04-28 20:24 | 64.10996 | -22.15537 | 5430 ft | 250 kts | 285° |
| 2026-04-28 20:24 | 64.11707 | -22.19153 | 5133 ft | 248 kts | 286° |
| 2026-04-28 20:24 | 64.12410 | -22.22736 | 4886 ft | 245 kts | 285° |
| 2026-04-28 20:24 | 64.13101 | -22.26260 | 4679 ft | 240 kts | 285° |
| 2026-04-28 20:25 | 64.13777 | -22.29720 | 4478 ft | 236 kts | 285° |
| 2026-04-28 20:25 | 64.14439 | -22.33115 | 4297 ft | 231 kts | 285° |
| 2026-04-28 20:25 | 64.15089 | -22.36441 | 4105 ft | 226 kts | 285° |
| 2026-04-28 20:25 | 64.15721 | -22.39690 | 3931 ft | 220 kts | 284° |
| 2026-04-28 20:26 | 64.15973 | -22.42916 | 3722 ft | 196 kts | 252° |
| 2026-04-28 20:26 | 64.15618 | -22.45829 | 3587 ft | 190 kts | 245° |
| 2026-04-28 20:26 | 64.15214 | -22.48763 | 3412 ft | 195 kts | 245° |
| 2026-04-28 20:26 | 64.14790 | -22.51703 | 3220 ft | 194 kts | 244° |
| 2026-04-28 20:27 | 64.14354 | -22.54624 | 3046 ft | 193 kts | 243° |
| 2026-04-28 20:27 | 64.13881 | -22.57472 | 2877 ft | 187 kts | 232° |
| 2026-04-28 20:27 | 64.12967 | -22.59381 | 2735 ft | 178 kts | 202° |
| 2026-04-28 20:27 | 64.11771 | -22.60154 | 2585 ft | 180 kts | 190° |
| 2026-04-28 20:28 | 64.10532 | -22.60405 | 2410 ft | 177 kts | 185° |
| 2026-04-28 20:28 | 64.09313 | -22.60487 | 2225 ft | 173 kts | 185° |
| 2026-04-28 20:28 | 64.08116 | -22.60512 | 1996 ft | 170 kts | 184° |
| 2026-04-28 20:28 | 64.06955 | -22.60519 | 1815 ft | 162 kts | 184° |
| 2026-04-28 20:29 | 64.05864 | -22.60524 | 1595 ft | 150 kts | 184° |
| 2026-04-28 20:29 | 64.04880 | -22.60526 | 1389 ft | 134 kts | 185° |
| 2026-04-28 20:29 | 64.04027 | -22.60526 | 1251 ft | 113 kts | 186° |
| 2026-04-28 20:29 | 64.03248 | -22.60529 | 1063 ft | 111 kts | 186° |
| 2026-04-28 20:30 | 64.02480 | -22.60533 | 873 ft | 110 kts | 186° |
| 2026-04-28 20:30 | 64.01693 | -22.60536 | 720 ft | 116 kts | 186° |
| 2026-04-28 20:30 | 64.00878 | -22.60528 | 574 ft | 120 kts | 185° |
| 2026-04-28 20:30 | 64.00050 | -22.60563 | 421 ft | 117 kts | 184° |
| 2026-04-28 20:31 | 63.99254 | -22.60505 | 224 ft | 111 kts | 184° |
| 2026-04-28 20:31 | 63.98541 | -22.60553 | 179 ft | 91 kts | 181° |
| 2026-04-28 20:31 | 63.98002 | -22.60543 | 174 ft | 61 kts | 181° |
| 2026-04-28 20:31 | 63.97698 | -22.60542 | 175 ft | 33 kts | 180° |
| 2026-04-28 20:32 | 63.97495 | -22.60560 | 175 ft | 27 kts | 189° |
| 2026-04-28 20:32 | 63.97446 | -22.60813 | 170 ft | 18 kts | 286° |
| 2026-04-28 20:32 | 63.97527 | -22.60962 | 168 ft | 15 kts | 10° |
| 2026-04-28 20:32 | 63.97616 | -22.60945 | 170 ft | 11 kts | 7° |
| 2026-04-28 20:33 | 63.97684 | -22.60937 | 171 ft | 8 kts | 0° |
| 2026-04-28 20:33 | 63.97737 | -22.60939 | 172 ft | 8 kts | 358° |
| 2026-04-28 20:33 | 63.97817 | -22.60946 | 172 ft | 16 kts | 357° |
| 2026-04-28 20:33 | 63.97955 | -22.60953 | 171 ft | 24 kts | 3° |
| 2026-04-28 20:34 | 63.98135 | -22.60939 | 169 ft | 30 kts | 0° |
| 2026-04-28 20:34 | 63.98324 | -22.60939 | 168 ft | 23 kts | 0° |
| 2026-04-28 20:34 | 63.98474 | -22.60939 | 171 ft | 20 kts | 1° |
| 2026-04-28 20:34 | 63.98606 | -22.60944 | 169 ft | 19 kts | 358° |
| 2026-04-28 20:35 | 63.98732 | -22.60943 | 167 ft | 18 kts | 1° |
| 2026-04-28 20:35 | 63.98846 | -22.60940 | 169 ft | 14 kts | 0° |
| 2026-04-28 20:35 | 63.98930 | -22.60941 | 172 ft | 10 kts | 0° |
| 2026-04-28 20:35 | 63.98990 | -22.60939 | 172 ft | 8 kts | 1° |
| 2026-04-28 20:36 | 63.99057 | -22.60937 | 170 ft | 13 kts | 0° |
| 2026-04-28 20:36 | 63.99167 | -22.60986 | 165 ft | 14 kts | 303° |
| 2026-04-28 20:36 | 63.99174 | -22.61202 | 160 ft | 16 kts | 269° |
| 2026-04-28 20:36 | 63.99174 | -22.61458 | 154 ft | 17 kts | 270° |
| 2026-04-28 20:37 | 63.99175 | -22.61728 | 148 ft | 18 kts | 269° |
| 2026-04-28 20:37 | 63.99202 | -22.61966 | 144 ft | 12 kts | 333° |
| 2026-04-28 20:37 | 63.99279 | -22.61985 | 144 ft | 10 kts | 358° |
| 2026-04-28 20:37 | 63.99344 | -22.61987 | 144 ft | 9 kts | 0° |
| 2026-04-28 20:38 | 63.99392 | -22.61996 | 144 ft | 4 kts | 338° |
| 2026-04-28 20:38 | 63.99406 | -22.62012 | 144 ft | 2 kts | 333° |
| 2026-04-28 20:38 | 63.99408 | -22.62014 | 144 ft | 0 kts | 333° |
| 2026-04-28 20:39 | 63.99412 | -22.62019 | 144 ft | 2 kts | 333° |
| 2026-04-28 20:39 | 63.99413 | -22.62069 | 144 ft | 6 kts | 240° |
| 2026-04-28 20:39 | 63.99392 | -22.62149 | 144 ft | 3 kts | 238° |
| 2026-04-28 20:40 | 63.99380 | -22.62191 | 144 ft | 3 kts | 238° |
| 2026-04-28 20:40 | 63.99379 | -22.62195 | 144 ft | 0 kts | 238° |